sensor_id;sensor_type;location;lat;lon;timestamp;pressure;altitude;pressure_sealevel;temperature;humidity
74578;BME280;63173;49.086;33.418;2022-12-11T00:00:47;99616.59;;;10.17;100.00
74578;BME280;63173;49.086;33.418;2022-12-11T00:03:12;99618.69;;;10.20;100.00
74578;BME280;63173;49.086;33.418;2022-12-11T00:05:39;99612.75;;;10.18;100.00
74578;BME280;63173;49.086;33.418;2022-12-11T00:08:04;99609.97;;;10.23;100.00
74578;BME280;63173;49.086;33.418;2022-12-11T00:10:30;99599.19;;;10.18;100.00
74578;BME280;63173;49.086;33.418;2022-12-11T00:12:55;99605.03;;;10.25;100.00
74578;BME280;63173;49.086;33.418;2022-12-11T00:15:21;99603.53;;;10.33;100.00
74578;BME280;63173;49.086;33.418;2022-12-11T00:17:46;99595.19;;;10.29;100.00
74578;BME280;63173;49.086;33.418;2022-12-11T00:20:12;99595.78;;;10.26;100.00
74578;BME280;63173;49.086;33.418;2022-12-11T00:22:37;99585.44;;;10.28;100.00
74578;BME280;63173;49.086;33.418;2022-12-11T00:25:03;99584.81;;;10.31;100.00
74578;BME280;63173;49.086;33.418;2022-12-11T00:27:28;99589.66;;;10.34;100.00
74578;BME280;63173;49.086;33.418;2022-12-11T00:29:54;99583.91;;;10.36;100.00
74578;BME280;63173;49.086;33.418;2022-12-11T00:32:19;99587.94;;;10.38;100.00
74578;BME280;63173;49.086;33.418;2022-12-11T00:34:45;99583.03;;;10.40;100.00
74578;BME280;63173;49.086;33.418;2022-12-11T00:37:10;99572.88;;;10.32;100.00
74578;BME280;63173;49.086;33.418;2022-12-11T00:39:36;99583.31;;;10.39;100.00
74578;BME280;63173;49.086;33.418;2022-12-11T00:42:02;99578.69;;;10.39;100.00
74578;BME280;63173;49.086;33.418;2022-12-11T00:44:27;99581.78;;;10.47;100.00
74578;BME280;63173;49.086;33.418;2022-12-11T00:46:52;99582.09;;;10.45;100.00
74578;BME280;63173;49.086;33.418;2022-12-11T00:49:18;99576.16;;;10.43;100.00
74578;BME280;63173;49.086;33.418;2022-12-11T00:51:43;99580.69;;;10.48;100.00
74578;BME280;63173;49.086;33.418;2022-12-11T00:54:09;99567.00;;;10.39;100.00
74578;BME280;63173;49.086;33.418;2022-12-11T00:56:34;99558.97;;;10.61;100.00
74578;BME280;63173;49.086;33.418;2022-12-11T00:58:59;99567.41;;;10.60;100.00
74578;BME280;63173;49.086;33.418;2022-12-11T01:01:25;99569.13;;;10.56;100.00
74578;BME280;63173;49.086;33.418;2022-12-11T01:03:51;99562.06;;;10.55;100.00
74578;BME280;63173;49.086;33.418;2022-12-11T01:06:19;99564.72;;;10.60;100.00
74578;BME280;63173;49.086;33.418;2022-12-11T01:08:45;99561.69;;;10.61;100.00
74578;BME280;63173;49.086;33.418;2022-12-11T01:11:13;99566.31;;;10.61;100.00
74578;BME280;63173;49.086;33.418;2022-12-11T01:13:39;99564.41;;;10.61;100.00
74578;BME280;63173;49.086;33.418;2022-12-11T01:16:13;99565.91;;;10.54;100.00
74578;BME280;63173;49.086;33.418;2022-12-11T01:18:39;99557.06;;;10.62;100.00
74578;BME280;63173;49.086;33.418;2022-12-11T01:21:10;99548.31;;;10.51;100.00
74578;BME280;63173;49.086;33.418;2022-12-11T01:23:36;99547.91;;;10.58;100.00
74578;BME280;63173;49.086;33.418;2022-12-11T01:26:11;99551.00;;;10.65;100.00
74578;BME280;63173;49.086;33.418;2022-12-11T01:28:37;99551.31;;;10.63;100.00
74578;BME280;63173;49.086;33.418;2022-12-11T01:31:09;99552.31;;;10.67;100.00
74578;BME280;63173;49.086;33.418;2022-12-11T01:33:35;99548.31;;;10.51;100.00
74578;BME280;63173;49.086;33.418;2022-12-11T01:36:06;99551.03;;;10.51;100.00
74578;BME280;63173;49.086;33.418;2022-12-11T01:38:31;99550.50;;;10.63;100.00
74578;BME280;63173;49.086;33.418;2022-12-11T01:40:57;99551.53;;;10.39;100.00
74578;BME280;63173;49.086;33.418;2022-12-11T01:43:22;99547.94;;;10.30;100.00
74578;BME280;63173;49.086;33.418;2022-12-11T01:45:48;99551.16;;;10.32;100.00
74578;BME280;63173;49.086;33.418;2022-12-11T01:48:18;99543.13;;;10.27;100.00
74578;BME280;63173;49.086;33.418;2022-12-11T01:50:54;99551.31;;;10.09;100.00
74578;BME280;63173;49.086;33.418;2022-12-11T01:53:24;99543.47;;;10.07;100.00
74578;BME280;63173;49.086;33.418;2022-12-11T01:55:54;99534.63;;;10.02;100.00
74578;BME280;63173;49.086;33.418;2022-12-11T01:58:23;99547.69;;;10.00;100.00
74578;BME280;63173;49.086;33.418;2022-12-11T02:00:51;99554.53;;;9.97;100.00
74578;BME280;63173;49.086;33.418;2022-12-11T02:03:17;99544.78;;;9.96;100.00
74578;BME280;63173;49.086;33.418;2022-12-11T02:05:42;99555.75;;;10.05;100.00
74578;BME280;63173;49.086;33.418;2022-12-11T02:08:08;99553.16;;;10.13;100.00
74578;BME280;63173;49.086;33.418;2022-12-11T02:10:52;99556.34;;;10.02;100.00
74578;BME280;63173;49.086;33.418;2022-12-11T02:13:47;99545.72;;;10.19;100.00
74578;BME280;63173;49.086;33.418;2022-12-11T02:16:33;99545.72;;;10.19;100.00
74578;BME280;63173;49.086;33.418;2022-12-11T02:22:08;99557.16;;;10.02;100.00
74578;BME280;63173;49.086;33.418;2022-12-11T02:30:10;99544.47;;;9.84;100.00
74578;BME280;63173;49.086;33.418;2022-12-11T02:32:46;99556.44;;;9.83;100.00
74578;BME280;63173;49.086;33.418;2022-12-11T02:35:30;99547.47;;;9.83;100.00
74578;BME280;63173;49.086;33.418;2022-12-11T02:38:08;99550.28;;;9.78;100.00
74578;BME280;63173;49.086;33.418;2022-12-11T02:40:38;99542.34;;;9.81;100.00
74578;BME280;63173;49.086;33.418;2022-12-11T02:43:07;99541.75;;;9.84;100.00
74578;BME280;63173;49.086;33.418;2022-12-11T02:45:34;99538.84;;;9.81;100.00
74578;BME280;63173;49.086;33.418;2022-12-11T02:48:03;99531.88;;;9.75;100.00
74578;BME280;63173;49.086;33.418;2022-12-11T02:50:30;99535.53;;;9.84;100.00
74578;BME280;63173;49.086;33.418;2022-12-11T02:52:59;99530.50;;;9.91;100.00
74578;BME280;63173;49.086;33.418;2022-12-11T02:55:28;99526.78;;;9.87;100.00
74578;BME280;63173;49.086;33.418;2022-12-11T02:58:15;99521.38;;;10.00;100.00
74578;BME280;63173;49.086;33.418;2022-12-11T03:00:43;99522.38;;;10.04;100.00
74578;BME280;63173;49.086;33.418;2022-12-11T03:03:09;99528.41;;;10.01;100.00
74578;BME280;63173;49.086;33.418;2022-12-11T03:05:35;99522.97;;;10.01;100.00
74578;BME280;63173;49.086;33.418;2022-12-11T03:08:01;99518.47;;;9.97;100.00
74578;BME280;63173;49.086;33.418;2022-12-11T03:10:26;99525.97;;;9.86;100.00
74578;BME280;63173;49.086;33.418;2022-12-11T03:12:54;99517.75;;;9.91;100.00
74578;BME280;63173;49.086;33.418;2022-12-11T03:15:29;99512.53;;;9.95;100.00
74578;BME280;63173;49.086;33.418;2022-12-11T03:30:55;99500.41;;;10.19;100.00
74578;BME280;63173;49.086;33.418;2022-12-11T03:36:21;99491.13;;;10.34;100.00
74578;BME280;63173;49.086;33.418;2022-12-11T03:38:49;99490.03;;;10.35;100.00
74578;BME280;63173;49.086;33.418;2022-12-11T03:41:19;99482.38;;;10.37;100.00
74578;BME280;63173;49.086;33.418;2022-12-11T03:43:47;99490.53;;;10.37;100.00
74578;BME280;63173;49.086;33.418;2022-12-11T03:46:14;99490.28;;;10.47;100.00
74578;BME280;63173;49.086;33.418;2022-12-11T03:48:41;99476.81;;;10.56;100.00
74578;BME280;63173;49.086;33.418;2022-12-11T03:51:08;99482.53;;;10.54;100.00
74578;BME280;63173;49.086;33.418;2022-12-11T03:53:35;99486.44;;;10.62;100.00
74578;BME280;63173;49.086;33.418;2022-12-11T03:56:03;99481.75;;;10.54;100.00
74578;BME280;63173;49.086;33.418;2022-12-11T03:58:30;99479.53;;;10.56;100.00
74578;BME280;63173;49.086;33.418;2022-12-11T04:00:56;99483.75;;;10.62;100.00
74578;BME280;63173;49.086;33.418;2022-12-11T04:03:21;99476.38;;;10.62;100.00
74578;BME280;63173;49.086;33.418;2022-12-11T04:05:49;99479.59;;;10.64;100.00
74578;BME280;63173;49.086;33.418;2022-12-11T04:08:16;99478.19;;;10.67;100.00
74578;BME280;63173;49.086;33.418;2022-12-11T04:10:42;99480.63;;;10.55;100.00
74578;BME280;63173;49.086;33.418;2022-12-11T04:13:09;99480.63;;;10.55;100.00
74578;BME280;63173;49.086;33.418;2022-12-11T04:15:35;99482.75;;;10.58;100.00
74578;BME280;63173;49.086;33.418;2022-12-11T04:18:01;99478.94;;;10.45;100.00
74578;BME280;63173;49.086;33.418;2022-12-11T04:20:44;99483.78;;;10.48;100.00
74578;BME280;63173;49.086;33.418;2022-12-11T04:23:28;99474.94;;;10.43;100.00
74578;BME280;63173;49.086;33.418;2022-12-11T04:26:18;99472.41;;;10.46;100.00
74578;BME280;63173;49.086;33.418;2022-12-11T04:28:45;99465.25;;;10.50;100.00
74578;BME280;63173;49.086;33.418;2022-12-11T04:31:14;99460.66;;;10.37;100.00
74578;BME280;63173;49.086;33.418;2022-12-11T04:33:40;99453.59;;;10.50;100.00
74578;BME280;63173;49.086;33.418;2022-12-11T04:36:06;99466.09;;;10.37;100.00
74578;BME280;63173;49.086;33.418;2022-12-11T04:38:32;99464.34;;;10.41;100.00
74578;BME280;63173;49.086;33.418;2022-12-11T04:41:03;99460.25;;;10.30;100.00
74578;BME280;63173;49.086;33.418;2022-12-11T04:43:29;99469.78;;;10.41;100.00
74578;BME280;63173;49.086;33.418;2022-12-11T04:46:16;99470.91;;;10.40;100.00
74578;BME280;63173;49.086;33.418;2022-12-11T04:48:41;99463.25;;;10.42;100.00
74578;BME280;63173;49.086;33.418;2022-12-11T04:51:07;99457.47;;;10.35;100.00
74578;BME280;63173;49.086;33.418;2022-12-11T04:53:34;99460.13;;;10.49;100.00
74578;BME280;63173;49.086;33.418;2022-12-11T04:56:00;99461.94;;;10.39;100.00
74578;BME280;63173;49.086;33.418;2022-12-11T04:58:26;99466.09;;;10.37;100.00
74578;BME280;63173;49.086;33.418;2022-12-11T05:00:52;99462.44;;;10.41;100.00
74578;BME280;63173;49.086;33.418;2022-12-11T05:03:18;99469.38;;;10.48;100.00
74578;BME280;63173;49.086;33.418;2022-12-11T05:05:50;99464.94;;;10.52;100.00
74578;BME280;63173;49.086;33.418;2022-12-11T05:08:20;99461.72;;;10.50;100.00
74578;BME280;63173;49.086;33.418;2022-12-11T05:11:00;99467.75;;;10.47;100.00
74578;BME280;63173;49.086;33.418;2022-12-11T05:13:27;99465.53;;;10.49;100.00
74578;BME280;63173;49.086;33.418;2022-12-11T05:15:53;99469.56;;;10.51;100.00
74578;BME280;63173;49.086;33.418;2022-12-11T05:18:18;99468.47;;;10.52;100.00
74578;BME280;63173;49.086;33.418;2022-12-11T05:20:44;99464.13;;;10.51;100.00
74578;BME280;63173;49.086;33.418;2022-12-11T05:23:10;99463.31;;;10.51;100.00
74578;BME280;63173;49.086;33.418;2022-12-11T05:25:35;99464.25;;;10.46;100.00
74578;BME280;63173;49.086;33.418;2022-12-11T05:28:01;99464.13;;;10.51;100.00
74578;BME280;63173;49.086;33.418;2022-12-11T05:30:26;99456.63;;;10.48;100.00
74578;BME280;63173;49.086;33.418;2022-12-11T05:32:52;99459.03;;;10.50;100.00
74578;BME280;63173;49.086;33.418;2022-12-11T05:35:17;99460.50;;;10.56;100.00
74578;BME280;63173;49.086;33.418;2022-12-11T05:37:42;99456.69;;;10.57;100.00
74578;BME280;63173;49.086;33.418;2022-12-11T05:40:08;99448.16;;;10.50;100.00
74578;BME280;63173;49.086;33.418;2022-12-11T05:42:34;99461.00;;;10.58;100.00
74578;BME280;63173;49.086;33.418;2022-12-11T05:45:00;99460.38;;;10.61;100.00
74578;BME280;63173;49.086;33.418;2022-12-11T05:47:25;99455.78;;;10.61;100.00
74578;BME280;63173;49.086;33.418;2022-12-11T05:49:50;99457.19;;;10.59;100.00
74578;BME280;63173;49.086;33.418;2022-12-11T05:52:16;99456.44;;;10.67;100.00
74578;BME280;63173;49.086;33.418;2022-12-11T05:54:41;99451.63;;;10.64;100.00
74578;BME280;63173;49.086;33.418;2022-12-11T05:57:07;99456.44;;;10.67;100.00
74578;BME280;63173;49.086;33.418;2022-12-11T05:59:32;99463.47;;;10.68;100.00
74578;BME280;63173;49.086;33.418;2022-12-11T06:01:58;99449.78;;;10.73;100.00
74578;BME280;63173;49.086;33.418;2022-12-11T06:04:23;99455.59;;;10.80;100.00
74578;BME280;63173;49.086;33.418;2022-12-11T06:06:49;99457.19;;;10.81;100.00
74578;BME280;63173;49.086;33.418;2022-12-11T06:09:15;99461.56;;;10.68;100.00
74578;BME280;63173;49.086;33.418;2022-12-11T06:11:41;99459.34;;;10.70;100.00
74578;BME280;63173;49.086;33.418;2022-12-11T06:14:08;99460.16;;;10.71;100.00
74578;BME280;63173;49.086;33.418;2022-12-11T06:16:33;99467.97;;;10.50;100.00
74578;BME280;63173;49.086;33.418;2022-12-11T06:18:59;99465.44;;;10.54;100.00
74578;BME280;63173;49.086;33.418;2022-12-11T06:21:30;99464.94;;;10.52;100.00
74578;BME280;63173;49.086;33.418;2022-12-11T06:23:57;99478.22;;;10.53;100.00
74578;BME280;63173;49.086;33.418;2022-12-11T06:26:23;99465.13;;;10.55;100.00
74578;BME280;63173;49.086;33.418;2022-12-11T06:28:49;99475.09;;;10.60;100.00
74578;BME280;63173;49.086;33.418;2022-12-11T06:31:15;99471.66;;;10.54;100.00
74578;BME280;63173;49.086;33.418;2022-12-11T06:33:41;99470.75;;;10.59;100.00
74578;BME280;63173;49.086;33.418;2022-12-11T06:36:09;99472.25;;;10.65;100.00
74578;BME280;63173;49.086;33.418;2022-12-11T06:38:35;99481.13;;;10.57;100.00
74578;BME280;63173;49.086;33.418;2022-12-11T06:41:02;99469.94;;;10.58;100.00
74578;BME280;63173;49.086;33.418;2022-12-11T06:43:31;99472.75;;;10.67;100.00
74578;BME280;63173;49.086;33.418;2022-12-11T06:45:57;99465.78;;;10.74;100.00
74578;BME280;63173;49.086;33.418;2022-12-11T06:48:23;99469.59;;;10.73;100.00
74578;BME280;63173;49.086;33.418;2022-12-11T06:50:49;99459.72;;;10.77;100.00
74578;BME280;63173;49.086;33.418;2022-12-11T06:53:14;99457.44;;;10.71;100.00
74578;BME280;63173;49.086;33.418;2022-12-11T06:55:41;99459.84;;;10.72;100.00
74578;BME280;63173;49.086;33.418;2022-12-11T06:58:07;99457.19;;;10.81;100.00
74578;BME280;63173;49.086;33.418;2022-12-11T07:00:37;99459.66;;;10.69;100.00
74578;BME280;63173;49.086;33.418;2022-12-11T07:03:02;99453.09;;;10.70;100.00
74578;BME280;63173;49.086;33.418;2022-12-11T07:05:29;99459.91;;;10.81;100.00
74578;BME280;63173;49.086;33.418;2022-12-11T07:07:54;99456.50;;;10.75;100.00
74578;BME280;63173;49.086;33.418;2022-12-11T07:10:21;99449.78;;;10.73;100.00
74578;BME280;63173;49.086;33.418;2022-12-11T07:12:46;99449.13;;;10.67;100.00
74578;BME280;63173;49.086;33.418;2022-12-11T07:15:12;99448.06;;;10.77;100.00
74578;BME280;63173;49.086;33.418;2022-12-11T07:17:37;99452.75;;;10.63;100.00
74578;BME280;63173;49.086;33.418;2022-12-11T07:20:03;99450.06;;;10.71;100.00
74578;BME280;63173;49.086;33.418;2022-12-11T07:22:29;99448.19;;;10.72;100.00
74578;BME280;63173;49.086;33.418;2022-12-11T07:24:54;99458.72;;;10.73;100.00
74578;BME280;63173;49.086;33.418;2022-12-11T07:27:20;99457.75;;;10.69;100.00
74578;BME280;63173;49.086;33.418;2022-12-11T07:29:45;99451.69;;;10.72;100.00
74578;BME280;63173;49.086;33.418;2022-12-11T07:32:10;99455.28;;;10.81;100.00
74578;BME280;63173;49.086;33.418;2022-12-11T07:34:36;99452.44;;;10.86;100.00
74578;BME280;63173;49.086;33.418;2022-12-11T07:37:02;99460.72;;;10.81;100.00
74578;BME280;63173;49.086;33.418;2022-12-11T07:39:28;99445.03;;;10.78;100.00
74578;BME280;63173;49.086;33.418;2022-12-11T07:41:53;99442.28;;;10.92;100.00
74578;BME280;63173;49.086;33.418;2022-12-11T07:44:19;99433.31;;;10.91;100.00
74578;BME280;63173;49.086;33.418;2022-12-11T07:46:44;99442.28;;;10.92;100.00
74578;BME280;63173;49.086;33.418;2022-12-11T07:49:10;99448.31;;;10.89;100.00
74578;BME280;63173;49.086;33.418;2022-12-11T07:51:37;99439.06;;;10.90;100.00
74578;BME280;63173;49.086;33.418;2022-12-11T07:54:09;99448.53;;;10.79;100.00
74578;BME280;63173;49.086;33.418;2022-12-11T07:56:36;99440.59;;;10.82;100.00
74578;BME280;63173;49.086;33.418;2022-12-11T07:59:03;99441.38;;;10.83;100.00
74578;BME280;63173;49.086;33.418;2022-12-11T08:01:30;99438.97;;;10.81;100.00
74578;BME280;63173;49.086;33.418;2022-12-11T08:03:56;99445.81;;;10.79;100.00
74578;BME280;63173;49.086;33.418;2022-12-11T08:06:27;99448.97;;;10.94;100.00
74578;BME280;63173;49.086;33.418;2022-12-11T08:08:53;99440.38;;;10.79;100.00
74578;BME280;63173;49.086;33.418;2022-12-11T08:11:19;99438.78;;;10.78;100.00
74578;BME280;63173;49.086;33.418;2022-12-11T08:13:44;99444.66;;;10.71;100.00
74578;BME280;63173;49.086;33.418;2022-12-11T08:16:13;99432.13;;;10.84;100.00
74578;BME280;63173;49.086;33.418;2022-12-11T08:18:39;99434.53;;;10.85;100.00
74578;BME280;63173;49.086;33.418;2022-12-11T08:23:36;99431.63;;;10.82;100.00
74578;BME280;63173;49.086;33.418;2022-12-11T08:26:03;99428.69;;;10.92;100.00
74578;BME280;63173;49.086;33.418;2022-12-11T08:28:29;99430.09;;;10.89;100.00
74578;BME280;63173;49.086;33.418;2022-12-11T08:30:55;99424.47;;;10.86;100.00
74578;BME280;63173;49.086;33.418;2022-12-11T08:33:20;99423.25;;;10.92;100.00
74578;BME280;63173;49.086;33.418;2022-12-11T08:35:46;99415.53;;;10.85;100.00
74578;BME280;63173;49.086;33.418;2022-12-11T08:38:11;99413.97;;;10.93;100.00
74578;BME280;63173;49.086;33.418;2022-12-11T08:40:37;99416.88;;;10.96;100.00
74578;BME280;63173;49.086;33.418;2022-12-11T08:43:02;99415.78;;;10.97;100.00
74578;BME280;63173;49.086;33.418;2022-12-11T08:45:28;99423.44;;;10.95;100.00
74578;BME280;63173;49.086;33.418;2022-12-11T08:47:53;99412.88;;;10.94;100.00
74578;BME280;63173;49.086;33.418;2022-12-11T08:50:19;99414.34;;;11.00;100.00
74578;BME280;63173;49.086;33.418;2022-12-11T08:52:44;99406.50;;;10.98;100.00
74578;BME280;63173;49.086;33.418;2022-12-11T08:55:10;99408.38;;;10.89;100.00
74578;BME280;63173;49.086;33.418;2022-12-11T08:57:35;99400.53;;;10.88;100.00
74578;BME280;63173;49.086;33.418;2022-12-11T09:00:05;99399.56;;;10.92;100.00
74578;BME280;63173;49.086;33.418;2022-12-11T09:02:30;99394.81;;;10.98;100.00
74578;BME280;63173;49.086;33.418;2022-12-11T09:04:56;99386.16;;;10.96;100.00
74578;BME280;63173;49.086;33.418;2022-12-11T09:07:21;99385.50;;;10.90;100.00
74578;BME280;63173;49.086;33.418;2022-12-11T09:09:47;99381.38;;;10.93;100.00
74578;BME280;63173;49.086;33.418;2022-12-11T09:12:12;99382.59;;;10.87;100.00
74578;BME280;63173;49.086;33.418;2022-12-11T09:14:38;99370.19;;;10.94;100.00
74578;BME280;63173;49.086;33.418;2022-12-11T09:17:03;99367.28;;;10.91;100.00
74578;BME280;63173;49.086;33.418;2022-12-11T09:19:29;99366.00;;;10.88;100.00
74578;BME280;63173;49.086;33.418;2022-12-11T09:21:55;99380.38;;;10.89;100.00
74578;BME280;63173;49.086;33.418;2022-12-11T09:24:20;99374.47;;;10.87;100.00
74578;BME280;63173;49.086;33.418;2022-12-11T09:26:46;99369.75;;;11.01;100.00
74578;BME280;63173;49.086;33.418;2022-12-11T09:29:12;99361.59;;;11.01;100.00
74578;BME280;63173;49.086;33.418;2022-12-11T09:31:37;99353.84;;;11.16;100.00
74578;BME280;63173;49.086;33.418;2022-12-11T09:34:05;99355.63;;;11.21;100.00
74578;BME280;63173;49.086;33.418;2022-12-11T09:36:32;99346.69;;;11.29;100.00
74578;BME280;63173;49.086;33.418;2022-12-11T09:39:02;99347.09;;;11.45;99.62
74578;BME280;63173;49.086;33.418;2022-12-11T09:41:35;99339.97;;;11.26;98.92
74578;BME280;63173;49.086;33.418;2022-12-11T09:44:39;99335.00;;;11.28;99.67
74578;BME280;63173;49.086;33.418;2022-12-11T09:47:20;99332.63;;;11.27;98.71
74578;BME280;63173;49.086;33.418;2022-12-11T09:49:53;99337.41;;;11.30;99.00
74578;BME280;63173;49.086;33.418;2022-12-11T09:52:40;99329.41;;;11.25;98.96
74578;BME280;63173;49.086;33.418;2022-12-11T09:55:15;99318.09;;;11.40;98.45
74578;BME280;63173;49.086;33.418;2022-12-11T10:00:34;99307.44;;;11.52;97.49
74578;BME280;63173;49.086;33.418;2022-12-11T10:08:46;99305.03;;;11.59;96.28
74578;BME280;63173;49.086;33.418;2022-12-11T10:16:32;99292.09;;;11.56;96.50
74578;BME280;63173;49.086;33.418;2022-12-11T10:18:59;99280.41;;;11.64;96.29
74578;BME280;63173;49.086;33.418;2022-12-11T10:21:25;99289.06;;;11.58;96.18
74578;BME280;63173;49.086;33.418;2022-12-11T10:23:59;99284.28;;;11.72;95.78
74578;BME280;63173;49.086;33.418;2022-12-11T10:26:28;99284.94;;;11.69;95.91
74578;BME280;63173;49.086;33.418;2022-12-11T10:28:58;99281.69;;;11.58;96.01
74578;BME280;63173;49.086;33.418;2022-12-11T10:31:33;99281.72;;;11.75;95.51
74578;BME280;63173;49.086;33.418;2022-12-11T10:34:08;99286.84;;;11.68;95.41
74578;BME280;63173;49.086;33.418;2022-12-11T10:36:38;99279.66;;;11.72;95.25
74578;BME280;63173;49.086;33.418;2022-12-11T10:39:15;99276.16;;;11.80;95.21
74578;BME280;63173;49.086;33.418;2022-12-11T10:41:42;99270.88;;;11.84;95.20
74578;BME280;63173;49.086;33.418;2022-12-11T10:44:28;99273.72;;;11.70;95.48
74578;BME280;63173;49.086;33.418;2022-12-11T10:47:14;99272.13;;;11.78;95.21
74578;BME280;63173;49.086;33.418;2022-12-11T10:49:53;99263.34;;;11.81;94.90
74578;BME280;63173;49.086;33.418;2022-12-11T10:52:24;99256.94;;;11.85;94.32
74578;BME280;63173;49.086;33.418;2022-12-11T10:55:16;99263.66;;;11.96;94.28
74578;BME280;63173;49.086;33.418;2022-12-11T10:57:43;99261.75;;;12.05;93.59
74578;BME280;63173;49.086;33.418;2022-12-11T11:02:56;99257.91;;;12.06;93.76
74578;BME280;63173;49.086;33.418;2022-12-11T11:05:36;99250.69;;;12.02;93.93
74578;BME280;63173;49.086;33.418;2022-12-11T11:08:18;99250.88;;;12.05;94.12
74578;BME280;63173;49.086;33.418;2022-12-11T11:10:55;99242.69;;;11.97;94.46
74578;BME280;63173;49.086;33.418;2022-12-11T11:13:23;99244.28;;;11.89;94.50
74578;BME280;63173;49.086;33.418;2022-12-11T11:16:00;99239.19;;;11.88;95.67
74578;BME280;63173;49.086;33.418;2022-12-11T11:18:28;99238.19;;;11.75;96.64
74578;BME280;63173;49.086;33.418;2022-12-11T11:20:54;99235.03;;;11.73;96.83
74578;BME280;63173;49.086;33.418;2022-12-11T11:23:21;99225.41;;;11.76;97.16
74578;BME280;63173;49.086;33.418;2022-12-11T11:28:22;99236.88;;;11.64;97.87
74578;BME280;63173;49.086;33.418;2022-12-11T11:33:21;99213.72;;;11.67;97.79
74578;BME280;63173;49.086;33.418;2022-12-11T11:35:59;99220.28;;;11.66;98.07
74578;BME280;63173;49.086;33.418;2022-12-11T11:38:36;99219.75;;;11.55;98.18
74578;BME280;63173;49.086;33.418;2022-12-11T11:41:14;99210.78;;;11.55;98.43
74578;BME280;63173;49.086;33.418;2022-12-11T11:43:55;99209.66;;;11.47;98.44
74578;BME280;63173;49.086;33.418;2022-12-11T11:46:33;99205.22;;;11.43;98.87
74578;BME280;63173;49.086;33.418;2022-12-11T11:55:45;99177.19;;;11.25;99.45
74578;BME280;63173;49.086;33.418;2022-12-11T11:58:17;99176.41;;;11.33;99.75
74578;BME280;63173;49.086;33.418;2022-12-11T12:00:47;99181.16;;;11.19;99.51
74578;BME280;63173;49.086;33.418;2022-12-11T12:03:17;99168.22;;;11.16;99.28
74578;BME280;63173;49.086;33.418;2022-12-11T12:11:34;99166.97;;;11.22;99.14
74578;BME280;63173;49.086;33.418;2022-12-11T12:14:12;99174.31;;;11.21;98.76
74578;BME280;63173;49.086;33.418;2022-12-11T12:28:04;99159.59;;;11.14;99.16
74578;BME280;63173;49.086;33.418;2022-12-11T12:33:28;99150.16;;;11.11;99.29
74578;BME280;63173;49.086;33.418;2022-12-11T12:38:41;99150.47;;;11.10;99.46
74578;BME280;63173;49.086;33.418;2022-12-11T12:41:22;99156.38;;;11.12;99.01
74578;BME280;63173;49.086;33.418;2022-12-11T12:44:12;99143.91;;;11.02;99.79
74578;BME280;63173;49.086;33.418;2022-12-11T12:46:56;99144.06;;;11.06;99.59
74578;BME280;63173;49.086;33.418;2022-12-11T12:52:05;99137.81;;;10.97;100.00
74578;BME280;63173;49.086;33.418;2022-12-11T12:54:32;99131.13;;;11.03;100.00
74578;BME280;63173;49.086;33.418;2022-12-11T12:57:01;99130.97;;;10.99;100.00
74578;BME280;63173;49.086;33.418;2022-12-11T12:59:28;99130.31;;;11.02;100.00
74578;BME280;63173;49.086;33.418;2022-12-11T13:02:12;99119.91;;;10.96;100.00
74578;BME280;63173;49.086;33.418;2022-12-11T13:04:42;99125.84;;;11.06;100.00
74578;BME280;63173;49.086;33.418;2022-12-11T13:07:24;99115.78;;;11.07;100.00
74578;BME280;63173;49.086;33.418;2022-12-11T13:10:06;99115.44;;;11.00;100.00
74578;BME280;63173;49.086;33.418;2022-12-11T13:12:44;99117.38;;;10.99;100.00
74578;BME280;63173;49.086;33.418;2022-12-11T13:15:42;99112.59;;;11.05;100.00
74578;BME280;63173;49.086;33.418;2022-12-11T13:18:36;99113.22;;;11.02;100.00
74578;BME280;63173;49.086;33.418;2022-12-11T13:21:32;99111.63;;;11.01;100.00
74578;BME280;63173;49.086;33.418;2022-12-11T13:26:46;99103.78;;;10.99;100.00
74578;BME280;63173;49.086;33.418;2022-12-11T13:29:39;99096.91;;;11.02;100.00
74578;BME280;63173;49.086;33.418;2022-12-11T13:34:39;99094.19;;;11.02;100.00
74578;BME280;63173;49.086;33.418;2022-12-11T13:37:15;99092.72;;;10.96;100.00
74578;BME280;63173;49.086;33.418;2022-12-11T13:39:46;99091.16;;;11.03;100.00
74578;BME280;63173;49.086;33.418;2022-12-11T13:42:26;99075.97;;;10.94;100.00
74578;BME280;63173;49.086;33.418;2022-12-11T13:44:54;99083.66;;;11.00;100.00
74578;BME280;63173;49.086;33.418;2022-12-11T13:47:20;99083.66;;;11.00;100.00
74578;BME280;63173;49.086;33.418;2022-12-11T13:49:49;99080.75;;;10.88;100.00
74578;BME280;63173;49.086;33.418;2022-12-11T13:52:23;99081.22;;;10.90;100.00
74578;BME280;63173;49.086;33.418;2022-12-11T13:54:54;99070.38;;;10.82;100.00
74578;BME280;63173;49.086;33.418;2022-12-11T13:57:24;99080.44;;;10.90;100.00
74578;BME280;63173;49.086;33.418;2022-12-11T13:59:56;99071.97;;;10.91;100.00
74578;BME280;63173;49.086;33.418;2022-12-11T14:02:31;99077.56;;;11.03;100.00
74578;BME280;63173;49.086;33.418;2022-12-11T14:05:02;99062.41;;;10.94;100.00
74578;BME280;63173;49.086;33.418;2022-12-11T14:07:36;99066.69;;;11.03;100.00
74578;BME280;63173;49.086;33.418;2022-12-11T14:10:08;99071.84;;;11.05;100.00
74578;BME280;63173;49.086;33.418;2022-12-11T14:12:42;99056.63;;;11.04;100.00
74578;BME280;63173;49.086;33.418;2022-12-11T14:15:13;99066.25;;;11.01;100.00
74578;BME280;63173;49.086;33.418;2022-12-11T14:17:41;99059.03;;;11.05;100.00
74578;BME280;63173;49.086;33.418;2022-12-11T14:20:20;99049.44;;;11.08;100.00